createdAt,value
2019-05-23T00:00:14.000Z,97.60
2019-05-23T00:03:02.772Z,97.50
2019-05-23T00:05:52.031Z,97.60
2019-05-23T00:08:40.636Z,98.10
2019-05-23T00:11:32.110Z,98.50
2019-05-23T00:14:33.049Z,98.40
2019-05-23T00:17:04.985Z,98.50
2019-05-23T00:19:35.166Z,98.70
2019-05-23T00:22:07.949Z,98.80
2019-05-23T00:24:39.411Z,99.00
2019-05-23T00:27:09.915Z,99.40
2019-05-23T00:29:41.194Z,99.40
2019-05-23T00:32:12.817Z,99.20
2019-05-23T00:34:45.328Z,99.30
2019-05-23T00:37:16.248Z,99.80
2019-05-23T00:39:47.160Z,99.90
2019-05-23T00:42:17.295Z,99.90
2019-05-23T00:44:48.982Z,99.90
2019-05-23T00:47:20.111Z,99.90
2019-05-23T00:49:50.973Z,99.90
2019-05-23T00:52:21.476Z,99.90
2019-05-23T00:54:51.768Z,99.90
2019-05-23T00:57:21.820Z,99.90
2019-05-23T00:59:53.834Z,99.90
2019-05-23T01:02:24.894Z,99.90
2019-05-23T01:04:54.969Z,99.90
2019-05-23T01:07:25.846Z,99.90
2019-05-23T01:09:56.573Z,99.90
2019-05-23T01:12:27.898Z,99.90
2019-05-23T01:14:58.657Z,99.90
2019-05-23T01:17:30.532Z,99.90
2019-05-23T01:20:00.978Z,99.90
2019-05-23T01:22:31.233Z,99.90
2019-05-23T01:25:01.347Z,99.90
2019-05-23T01:27:31.281Z,99.90
2019-05-23T01:30:02.862Z,99.90
2019-05-23T01:32:37.979Z,99.90
2019-05-23T01:35:10.024Z,99.90
2019-05-23T01:37:41.157Z,99.90
2019-05-23T01:40:13.779Z,99.90
2019-05-23T01:42:44.380Z,99.90
2019-05-23T01:45:16.392Z,99.90
2019-05-23T01:47:47.799Z,99.90
2019-05-23T01:50:20.937Z,99.90
2019-05-23T01:52:51.594Z,99.90
2019-05-23T01:55:21.887Z,99.90
2019-05-23T01:57:52.436Z,99.90
2019-05-23T02:00:24.689Z,99.90
2019-05-23T02:02:54.993Z,99.90
2019-05-23T02:05:25.218Z,99.90
2019-05-23T02:07:55.272Z,99.90
2019-05-23T02:10:25.780Z,99.90
2019-05-23T02:12:56.832Z,99.90
2019-05-23T02:15:26.987Z,99.90
2019-05-23T02:17:57.542Z,99.90
2019-05-23T02:20:29.152Z,99.90
2019-05-23T02:22:59.419Z,99.90
2019-05-23T02:25:30.508Z,99.90
2019-05-23T02:28:00.332Z,99.90
2019-05-23T02:30:34.780Z,99.90
2019-05-23T02:33:03.767Z,99.90
2019-05-23T02:35:34.144Z,99.90
2019-05-23T02:38:12.079Z,99.90
2019-05-23T02:40:59.473Z,99.90
2019-05-23T02:43:30.920Z,99.90
2019-05-23T02:46:03.512Z,99.90
2019-05-23T02:48:45.980Z,99.90
2019-05-23T02:51:31.219Z,99.90
2019-05-23T02:54:04.035Z,99.90
2019-05-23T02:56:38.436Z,99.90
2019-05-23T02:59:15.499Z,99.90
2019-05-23T03:02:22.367Z,99.90
2019-05-23T03:04:52.609Z,99.90
2019-05-23T03:07:24.728Z,99.90
2019-05-23T03:09:54.966Z,99.90
2019-05-23T03:12:26.640Z,99.90
2019-05-23T03:14:57.194Z,99.90
2019-05-23T03:17:29.913Z,99.90
2019-05-23T03:20:02.275Z,99.90
2019-05-23T03:22:37.192Z,99.90
2019-05-23T03:25:16.082Z,99.90
2019-05-23T03:27:46.703Z,99.90
2019-05-23T03:30:19.079Z,99.90
2019-05-23T03:32:51.065Z,99.90
2019-05-23T03:35:25.458Z,99.90
2019-05-23T03:37:56.299Z,99.90
2019-05-23T03:40:26.440Z,99.90
2019-05-23T03:42:57.347Z,99.90
2019-05-23T03:45:32.719Z,99.90
2019-05-23T03:48:05.087Z,99.90
2019-05-23T03:50:35.401Z,99.90
2019-05-23T03:53:08.268Z,99.90
2019-05-23T03:55:38.653Z,99.90
2019-05-23T03:58:09.805Z,99.90
2019-05-23T04:00:41.566Z,99.90
2019-05-23T04:03:11.603Z,99.90
2019-05-23T04:05:41.418Z,99.90
2019-05-23T04:08:12.179Z,99.90
2019-05-23T04:10:42.063Z,99.90
2019-05-23T04:13:12.019Z,99.90
2019-05-23T04:15:43.514Z,99.90
2019-05-23T04:18:13.898Z,99.90
2019-05-23T04:20:43.765Z,99.90
2019-05-23T04:23:14.086Z,99.90
2019-05-23T04:25:45.299Z,99.30
2019-05-23T04:28:15.808Z,99.10
2019-05-23T04:30:46.346Z,99.10
2019-05-23T04:33:16.840Z,98.40
2019-05-23T04:35:47.981Z,97.80
2019-05-23T04:38:18.088Z,97.60
2019-05-23T04:40:48.000Z,97.70
2019-05-23T04:43:18.869Z,97.10
2019-05-23T04:45:50.335Z,95.80
2019-05-23T04:48:20.602Z,94.20
2019-05-23T04:50:50.586Z,92.60
2019-05-23T04:53:20.552Z,92.30
2019-05-23T04:55:50.438Z,91.60
2019-05-23T04:58:20.344Z,90.70
2019-05-23T05:00:51.256Z,89.20
2019-05-23T05:03:21.944Z,88.10
2019-05-23T05:05:51.882Z,85.70
2019-05-23T05:08:22.291Z,84.50
2019-05-23T05:10:53.673Z,83.30
2019-05-23T05:13:23.654Z,81.90
2019-05-23T05:15:54.071Z,80.70
2019-05-23T05:18:24.614Z,77.80
2019-05-23T05:20:54.653Z,78.60
2019-05-23T05:23:25.196Z,78.00
2019-05-23T05:25:55.356Z,75.70
2019-05-23T05:28:25.572Z,75.80
2019-05-23T05:30:55.840Z,73.00
2019-05-23T05:33:25.741Z,66.90
2019-05-23T05:35:56.191Z,65.50
2019-05-23T05:38:28.583Z,62.80
2019-05-23T05:40:58.108Z,59.80
2019-05-23T05:43:28.632Z,58.20
2019-05-23T05:45:59.289Z,55.90
2019-05-23T05:48:30.396Z,56.00
2019-05-23T05:51:00.591Z,55.00
2019-05-23T05:53:30.862Z,52.80
2019-05-23T05:56:00.727Z,51.90
2019-05-23T05:58:30.611Z,51.40
2019-05-23T06:01:02.350Z,49.70
2019-05-23T06:03:33.031Z,50.00
2019-05-23T06:06:07.907Z,49.40
2019-05-23T06:08:39.886Z,48.30
2019-05-23T06:11:10.691Z,47.10
2019-05-23T06:13:40.933Z,46.10
2019-05-23T06:16:10.892Z,46.10
2019-05-23T06:18:40.774Z,45.00
2019-05-23T06:21:12.489Z,45.40
2019-05-23T06:23:42.750Z,44.40
2019-05-23T06:26:12.663Z,45.20
2019-05-23T06:28:43.451Z,45.20
2019-05-23T06:31:14.112Z,45.90
2019-05-23T06:33:44.178Z,43.40
2019-05-23T06:36:14.370Z,42.20
2019-05-23T06:38:44.611Z,42.60
2019-05-23T06:41:14.763Z,41.30
2019-05-23T06:43:44.864Z,41.90
2019-05-23T06:46:15.328Z,42.40
2019-05-23T06:48:45.980Z,43.90
2019-05-23T06:51:17.400Z,43.50
2019-05-23T06:53:47.611Z,44.10
2019-05-23T06:56:17.836Z,44.90
2019-05-23T06:58:48.966Z,44.10
2019-05-23T07:01:19.020Z,44.10
2019-05-23T07:03:48.910Z,43.60
2019-05-23T07:06:22.218Z,41.30
2019-05-23T07:08:52.639Z,41.30
2019-05-23T07:11:23.653Z,40.10
2019-05-23T07:13:53.540Z,40.10
2019-05-23T07:16:23.680Z,38.80
2019-05-23T07:18:53.673Z,38.80
2019-05-23T07:21:23.939Z,38.40
2019-05-23T07:23:53.878Z,37.90
2019-05-23T07:26:23.789Z,37.70
2019-05-23T07:28:54.415Z,36.20
2019-05-23T07:31:26.079Z,37.50
2019-05-23T07:34:01.606Z,38.60
2019-05-23T07:36:28.957Z,37.90
2019-05-23T07:38:58.906Z,37.30
2019-05-23T07:41:29.363Z,36.70
2019-05-23T07:43:59.445Z,38.30
2019-05-23T07:46:29.684Z,38.20
2019-05-23T07:48:59.607Z,37.70
2019-05-23T07:51:29.923Z,36.10
2019-05-23T07:54:07.172Z,34.90
2019-05-23T07:56:38.751Z,34.80
2019-05-23T07:59:08.891Z,33.90
2019-05-23T08:01:41.213Z,32.90
2019-05-23T08:04:21.474Z,34.20
2019-05-23T08:06:42.808Z,34.70
2019-05-23T08:09:13.167Z,32.80
2019-05-23T08:11:43.283Z,33.40
2019-05-23T08:14:13.648Z,33.10
2019-05-23T08:16:43.876Z,32.10
2019-05-23T08:19:19.244Z,33.00
2019-05-23T08:21:46.195Z,32.60
2019-05-23T08:24:16.189Z,35.80
2019-05-23T08:26:48.139Z,34.30
2019-05-23T08:29:26.596Z,33.60
2019-05-23T08:31:49.683Z,33.40
2019-05-23T08:34:19.778Z,33.50
2019-05-23T08:36:49.763Z,31.30
2019-05-23T08:39:20.023Z,30.90
2019-05-23T08:41:50.035Z,31.40
2019-05-23T08:44:21.109Z,32.90
2019-05-23T08:46:51.359Z,31.00
2019-05-23T08:49:22.218Z,31.00
2019-05-23T08:51:52.808Z,29.20
2019-05-23T08:54:22.835Z,28.40
2019-05-23T08:56:53.798Z,29.90
2019-05-23T08:59:23.685Z,28.60
2019-05-23T09:01:54.886Z,30.40
2019-05-23T09:04:25.268Z,27.10
2019-05-23T09:06:55.800Z,27.50
2019-05-23T09:09:29.505Z,28.90
2019-05-23T09:11:57.724Z,28.30
2019-05-23T09:14:27.535Z,28.80
2019-05-23T09:16:57.378Z,29.00
2019-05-23T09:19:27.621Z,29.40
2019-05-23T09:21:58.269Z,29.10
2019-05-23T09:24:29.377Z,30.00
2019-05-23T09:26:59.206Z,30.10
2019-05-23T09:29:29.375Z,28.10
2019-05-23T09:31:59.191Z,25.60
2019-05-23T09:34:29.781Z,27.60
2019-05-23T09:37:00.641Z,27.30
2019-05-23T09:39:30.991Z,26.60
2019-05-23T09:42:00.870Z,28.10
2019-05-23T09:44:31.026Z,27.30
2019-05-23T09:47:02.016Z,26.80
2019-05-23T09:49:31.921Z,27.00
2019-05-23T09:52:01.999Z,28.50
2019-05-23T09:54:32.745Z,28.60
2019-05-23T09:57:03.327Z,29.00
2019-05-23T09:59:33.400Z,27.50
2019-05-23T10:02:04.909Z,28.10
2019-05-23T10:04:35.275Z,28.70
2019-05-23T10:07:05.409Z,29.70
2019-05-23T10:09:35.535Z,29.20
2019-05-23T10:12:06.339Z,30.40
2019-05-23T10:14:40.031Z,29.40
2019-05-23T10:17:09.851Z,30.00
2019-05-23T10:19:40.337Z,30.00
2019-05-23T10:22:10.167Z,31.30
2019-05-23T10:24:40.310Z,33.40
2019-05-23T10:27:12.820Z,34.10
2019-05-23T10:29:43.054Z,34.10
2019-05-23T10:32:13.486Z,36.60
2019-05-23T10:34:43.300Z,37.30
2019-05-23T10:37:14.446Z,36.00
2019-05-23T10:39:47.343Z,35.80
2019-05-23T10:42:18.053Z,35.70
2019-05-23T10:44:47.929Z,35.80
2019-05-23T10:47:17.819Z,37.60
2019-05-23T10:49:48.031Z,38.90
2019-05-23T10:52:18.418Z,38.40
2019-05-23T10:54:51.452Z,37.90
2019-05-23T10:57:21.566Z,40.10
2019-05-23T10:59:52.343Z,39.60
2019-05-23T11:02:22.460Z,38.40
2019-05-23T11:04:52.547Z,39.20
2019-05-23T11:07:24.647Z,40.90
2019-05-23T11:09:55.044Z,39.70
2019-05-23T11:12:25.235Z,41.10
2019-05-23T11:14:55.359Z,41.50
2019-05-23T11:17:25.180Z,42.00
2019-05-23T11:19:54.984Z,41.00
2019-05-23T11:22:25.131Z,40.30
2019-05-23T11:24:55.238Z,39.70
2019-05-23T11:27:26.589Z,38.80
2019-05-23T11:29:56.623Z,40.60
2019-05-23T11:32:26.601Z,38.80
2019-05-23T11:34:56.826Z,39.30
2019-05-23T11:37:26.929Z,38.90
2019-05-23T11:39:57.592Z,38.00
2019-05-23T11:42:27.657Z,39.70
2019-05-23T11:44:57.448Z,38.10
2019-05-23T11:47:31.067Z,38.10
2019-05-23T11:49:58.911Z,41.20
2019-05-23T11:52:29.027Z,40.30
2019-05-23T11:54:58.916Z,38.30
2019-05-23T11:57:28.919Z,38.50
2019-05-23T11:59:59.231Z,37.40
2019-05-23T12:02:33.378Z,38.60
2019-05-23T12:05:06.112Z,37.50
2019-05-23T12:07:36.111Z,39.10
2019-05-23T12:10:07.275Z,37.20
2019-05-23T12:12:37.093Z,37.70
2019-05-23T12:15:11.453Z,38.50
2019-05-23T12:17:41.817Z,38.20
2019-05-23T12:20:12.662Z,38.90
2019-05-23T12:22:43.132Z,39.10
2019-05-23T12:25:22.153Z,40.70
2019-05-23T12:27:45.327Z,40.20
2019-05-23T12:30:16.991Z,39.40
2019-05-23T12:32:47.065Z,41.10
2019-05-23T12:35:16.889Z,39.70
2019-05-23T12:37:47.006Z,37.60
2019-05-23T12:40:17.319Z,38.10
2019-05-23T12:42:47.187Z,38.40
2019-05-23T12:45:23.021Z,39.80
2019-05-23T12:47:57.479Z,38.20
2019-05-23T12:50:40.809Z,40.20
2019-05-23T12:53:12.494Z,40.00
2019-05-23T12:55:42.477Z,39.80
2019-05-23T12:58:12.317Z,39.90
2019-05-23T13:00:43.921Z,39.80
2019-05-23T13:03:15.932Z,40.00
2019-05-23T13:05:46.121Z,40.00
2019-05-23T13:08:16.526Z,40.20
2019-05-23T13:10:46.565Z,41.40
2019-05-23T13:13:16.792Z,39.10
2019-05-23T13:15:47.897Z,39.90
2019-05-23T13:18:17.956Z,37.30
2019-05-23T13:20:48.408Z,40.00
2019-05-23T13:23:21.158Z,39.90
2019-05-23T13:25:50.256Z,39.20
2019-05-23T13:28:20.805Z,40.20
2019-05-23T13:30:51.159Z,39.70
2019-05-23T13:33:21.187Z,39.90
2019-05-23T13:35:51.517Z,38.80
2019-05-23T13:38:21.439Z,38.30
2019-05-23T13:40:51.331Z,37.30
2019-05-23T13:43:22.832Z,37.90
2019-05-23T13:45:52.818Z,38.70
2019-05-23T13:48:27.628Z,37.00
2019-05-23T13:50:54.771Z,37.80
2019-05-23T13:53:25.058Z,39.70
2019-05-23T13:55:55.111Z,39.80
2019-05-23T13:58:25.101Z,39.10
2019-05-23T14:00:55.003Z,40.70
2019-05-23T14:03:24.989Z,40.40
2019-05-23T14:05:55.098Z,38.50
2019-05-23T14:08:25.311Z,39.30
2019-05-23T14:10:55.359Z,39.80
2019-05-23T14:13:26.019Z,40.70
2019-05-23T14:15:56.278Z,41.40
2019-05-23T14:18:28.008Z,38.10
2019-05-23T14:20:58.244Z,37.60
2019-05-23T14:23:30.811Z,38.20
2019-05-23T14:26:03.450Z,37.90
2019-05-23T14:28:33.779Z,40.70
2019-05-23T14:31:11.284Z,39.00
2019-05-23T14:33:58.679Z,41.50
2019-05-23T14:36:48.475Z,41.30
2019-05-23T14:39:20.184Z,38.70
2019-05-23T14:41:57.920Z,41.50
2019-05-23T14:44:28.770Z,42.30
2019-05-23T14:47:18.702Z,36.80
2019-05-23T14:49:56.565Z,37.20
2019-05-23T14:52:34.262Z,38.60
2019-05-23T14:55:10.176Z,37.60
2019-05-23T14:57:38.798Z,36.50
2019-05-23T15:00:09.615Z,35.00
2019-05-23T15:02:39.792Z,35.20
2019-05-23T15:05:10.458Z,36.60
2019-05-23T15:07:40.527Z,35.60
2019-05-23T15:10:10.541Z,36.00
2019-05-23T15:12:40.797Z,34.50
2019-05-23T15:15:10.995Z,34.30
2019-05-23T15:17:40.808Z,34.50
2019-05-23T15:20:10.757Z,33.50
2019-05-23T15:22:40.564Z,34.10
2019-05-23T15:25:10.609Z,33.40
2019-05-23T15:27:40.482Z,33.90
2019-05-23T15:30:10.825Z,34.90
2019-05-23T15:32:40.699Z,33.80
2019-05-23T15:35:11.856Z,31.80
2019-05-23T15:37:41.816Z,32.60
2019-05-23T15:40:12.126Z,31.90
2019-05-23T15:42:42.233Z,32.60
2019-05-23T15:45:12.459Z,32.70
2019-05-23T15:47:42.723Z,32.40
2019-05-23T15:50:14.353Z,33.70
2019-05-23T15:52:45.798Z,33.90
2019-05-23T15:55:17.368Z,35.10
2019-05-23T15:58:05.176Z,35.20
2019-05-23T16:00:45.598Z,34.30
2019-05-23T16:03:17.399Z,35.60
2019-05-23T16:05:47.312Z,34.60
2019-05-23T16:08:17.928Z,34.00
2019-05-23T16:10:48.712Z,33.10
2019-05-23T16:13:18.968Z,34.60
2019-05-23T16:15:49.173Z,34.00
2019-05-23T16:18:20.034Z,34.30
2019-05-23T16:20:49.905Z,35.10
2019-05-23T16:23:19.709Z,33.40
2019-05-23T16:25:49.512Z,32.90
2019-05-23T16:28:19.405Z,32.90
2019-05-23T16:30:50.307Z,32.50
2019-05-23T16:33:20.385Z,33.20
2019-05-23T16:35:50.263Z,32.70
2019-05-23T16:38:20.284Z,33.00
2019-05-23T16:40:50.337Z,33.40
2019-05-23T16:43:20.519Z,33.20
2019-05-23T16:45:50.682Z,33.90
2019-05-23T16:48:20.800Z,33.90
2019-05-23T16:50:50.908Z,33.70
2019-05-23T16:53:21.220Z,33.80
2019-05-23T16:55:55.942Z,33.80
2019-05-23T16:58:30.296Z,32.40
2019-05-23T17:01:01.909Z,33.10
2019-05-23T17:03:39.421Z,33.20
2019-05-23T17:06:22.805Z,31.70
2019-05-23T17:08:57.226Z,31.80
2019-05-23T17:11:34.975Z,33.00
2019-05-23T17:14:06.949Z,32.30
2019-05-23T17:16:41.958Z,31.60
2019-05-23T17:19:29.315Z,32.10
2019-05-23T17:22:00.759Z,32.20
2019-05-23T17:24:41.036Z,31.80
2019-05-23T17:27:18.471Z,32.50
2019-05-23T17:29:55.610Z,32.80
2019-05-23T17:32:27.117Z,32.30
2019-05-23T17:34:56.995Z,33.30
2019-05-23T17:37:27.112Z,33.00
2019-05-23T17:39:57.253Z,32.90
2019-05-23T17:42:27.309Z,32.00
2019-05-23T17:44:58.151Z,33.30
2019-05-23T17:47:28.444Z,33.20
2019-05-23T17:49:58.323Z,33.80
2019-05-23T17:52:28.631Z,34.10
2019-05-23T17:54:58.512Z,35.00
2019-05-23T17:57:29.583Z,35.40
2019-05-23T17:59:59.544Z,36.10
2019-05-23T18:02:29.849Z,36.60
2019-05-23T18:05:00.341Z,37.00
2019-05-23T18:07:30.743Z,37.40
2019-05-23T18:10:00.855Z,37.70
2019-05-23T18:12:30.933Z,37.10
2019-05-23T18:15:00.719Z,36.90
2019-05-23T18:17:30.836Z,37.60
2019-05-23T18:20:00.986Z,36.70
2019-05-23T18:22:32.431Z,36.30
2019-05-23T18:25:02.536Z,36.50
2019-05-23T18:27:32.776Z,36.70
2019-05-23T18:30:06.783Z,37.40
2019-05-23T18:32:36.911Z,38.20
2019-05-23T18:35:07.722Z,39.00
2019-05-23T18:37:38.007Z,39.10
2019-05-23T18:40:08.365Z,40.00
2019-05-23T18:42:39.423Z,40.20
2019-05-23T18:45:09.598Z,41.70
2019-05-23T18:47:41.470Z,42.30
2019-05-23T18:50:13.329Z,42.50
2019-05-23T18:52:44.151Z,42.30
2019-05-23T18:55:14.264Z,43.10
2019-05-23T18:57:44.623Z,43.60
2019-05-23T19:00:15.354Z,44.10
2019-05-23T19:02:45.168Z,44.50
2019-05-23T19:05:16.350Z,45.00
2019-05-23T19:07:46.520Z,45.80
2019-05-23T19:10:16.574Z,46.20
2019-05-23T19:12:46.857Z,47.00
2019-05-23T19:15:17.278Z,48.40
2019-05-23T19:17:47.309Z,48.60
2019-05-23T19:20:17.382Z,49.10
2019-05-23T19:22:47.222Z,49.70
2019-05-23T19:25:17.837Z,50.90
2019-05-23T19:27:48.068Z,51.10
2019-05-23T19:30:18.331Z,51.50
2019-05-23T19:32:48.652Z,52.00
2019-05-23T19:35:18.880Z,52.30
2019-05-23T19:37:49.057Z,53.00
2019-05-23T19:40:19.171Z,53.60
2019-05-23T19:42:49.278Z,54.10
2019-05-23T19:45:19.330Z,54.90
2019-05-23T19:47:49.431Z,55.50
2019-05-23T19:50:19.412Z,55.90
2019-05-23T19:52:49.260Z,57.40
2019-05-23T19:55:19.067Z,58.40
2019-05-23T19:57:49.308Z,58.80
2019-05-23T20:00:20.893Z,58.90
2019-05-23T20:03:03.239Z,59.60
2019-05-23T20:05:33.165Z,59.40
2019-05-23T20:08:03.286Z,59.40
2019-05-23T20:10:33.822Z,59.40
2019-05-23T20:13:03.773Z,60.20
2019-05-23T20:15:34.577Z,60.10
2019-05-23T20:18:05.073Z,60.80
2019-05-23T20:20:36.657Z,61.10
2019-05-23T20:23:07.342Z,61.50
2019-05-23T20:25:37.557Z,62.80
2019-05-23T20:28:08.676Z,63.60
2019-05-23T20:30:45.653Z,64.00
2019-05-23T20:33:15.737Z,64.40
2019-05-23T20:35:45.544Z,65.20
2019-05-23T20:38:15.566Z,65.60
2019-05-23T20:40:45.451Z,66.20
2019-05-23T20:43:15.572Z,65.30
2019-05-23T20:45:45.484Z,67.30
2019-05-23T20:48:16.017Z,67.90
2019-05-23T20:50:45.978Z,68.10
2019-05-23T20:53:15.874Z,68.60
2019-05-23T20:55:45.941Z,67.90
2019-05-23T20:58:16.575Z,69.40
2019-05-23T21:00:48.026Z,70.10
2019-05-23T21:03:19.590Z,70.00
2019-05-23T21:05:49.545Z,71.10
2019-05-23T21:08:19.358Z,72.10
2019-05-23T21:10:49.630Z,71.20
2019-05-23T21:13:19.825Z,71.20
2019-05-23T21:15:50.211Z,71.80
2019-05-23T21:18:20.391Z,72.10
2019-05-23T21:20:50.330Z,71.50
2019-05-23T21:23:20.273Z,71.40
2019-05-23T21:25:54.573Z,70.90
2019-05-23T21:28:24.682Z,71.50
2019-05-23T21:30:54.621Z,70.10
2019-05-23T21:33:25.151Z,70.80
2019-05-23T21:35:55.030Z,71.20
2019-05-23T21:38:25.815Z,69.90
2019-05-23T21:40:55.871Z,68.80
2019-05-23T21:43:25.751Z,68.70
2019-05-23T21:45:55.832Z,69.70
2019-05-23T21:48:25.628Z,71.80
2019-05-23T21:50:55.431Z,73.70
2019-05-23T21:53:25.485Z,75.10
2019-05-23T21:55:55.286Z,75.10
2019-05-23T21:58:25.168Z,75.10
2019-05-23T22:01:08.555Z,75.90
2019-05-23T22:03:53.879Z,76.40
2019-05-23T22:06:36.050Z,76.50
2019-05-23T22:09:09.081Z,76.50
2019-05-23T22:11:39.283Z,76.70
2019-05-23T22:14:09.513Z,77.10
2019-05-23T22:16:39.486Z,77.60
2019-05-23T22:19:11.242Z,77.50
2019-05-23T22:21:41.324Z,78.40
2019-05-23T22:24:11.901Z,77.50
2019-05-23T22:26:41.711Z,76.70
2019-05-23T22:29:12.000Z,78.00
2019-05-23T22:31:41.849Z,78.50
2019-05-23T22:34:19.653Z,79.50
2019-05-23T22:36:49.458Z,80.80
2019-05-23T22:39:19.389Z,80.70
2019-05-23T22:41:49.195Z,81.20
2019-05-23T22:44:19.146Z,81.30
2019-05-23T22:46:49.087Z,82.00
2019-05-23T22:49:20.283Z,82.40
2019-05-23T22:51:50.326Z,83.20
2019-05-23T22:54:20.200Z,83.40
2019-05-23T22:56:50.243Z,83.60
2019-05-23T22:59:20.359Z,84.50
2019-05-23T23:01:50.246Z,84.70
2019-05-23T23:04:20.066Z,85.30
2019-05-23T23:06:49.868Z,85.10
2019-05-23T23:09:20.497Z,85.50
2019-05-23T23:11:50.307Z,86.60
2019-05-23T23:14:20.107Z,86.90
2019-05-23T23:16:50.395Z,87.40
2019-05-23T23:19:20.324Z,87.60
2019-05-23T23:21:50.134Z,89.30
2019-05-23T23:24:20.347Z,89.10
2019-05-23T23:26:50.459Z,89.60
2019-05-23T23:29:20.509Z,89.70
2019-05-23T23:31:50.753Z,89.30
2019-05-23T23:34:20.880Z,90.00
2019-05-23T23:36:50.691Z,90.30
2019-05-23T23:39:20.821Z,90.70
2019-05-23T23:41:50.637Z,90.90
2019-05-23T23:44:21.906Z,91.40
2019-05-23T23:47:09.896Z,91.30
2019-05-23T23:49:57.903Z,91.30
2019-05-23T23:52:45.478Z,91.30
2019-05-23T23:55:33.175Z,91.70
2019-05-23T23:58:02.366Z,90.60
